sensor_id;sensor_type;location;lat;lon;timestamp;pressure;altitude;pressure_sealevel;temperature;humidity
58473;BME280;44775;51.564;5.460;2024-03-02T00:00:05;99513.19;;;8.38;100.00
58473;BME280;44775;51.564;5.460;2024-03-02T00:02:46;99529.16;;;8.38;100.00
58473;BME280;44775;51.564;5.460;2024-03-02T00:05:19;99534.81;;;8.35;100.00
58473;BME280;44775;51.564;5.460;2024-03-02T00:07:46;99536.56;;;8.27;100.00
58473;BME280;44775;51.564;5.460;2024-03-02T00:10:16;99560.41;;;8.36;100.00
58473;BME280;44775;51.564;5.460;2024-03-02T00:12:47;99570.59;;;8.32;100.00
58473;BME280;44775;51.564;5.460;2024-03-02T00:18:02;99613.25;;;7.79;100.00
58473;BME280;44775;51.564;5.460;2024-03-02T00:20:28;99610.88;;;7.47;100.00
58473;BME280;44775;51.564;5.460;2024-03-02T00:23:03;99633.69;;;7.18;100.00
58473;BME280;44775;51.564;5.460;2024-03-02T00:25:44;99631.97;;;7.02;100.00
58473;BME280;44775;51.564;5.460;2024-03-02T00:28:21;99639.63;;;6.66;100.00
58473;BME280;44775;51.564;5.460;2024-03-02T00:31:09;99637.50;;;6.61;100.00
58473;BME280;44775;51.564;5.460;2024-03-02T00:33:40;99626.75;;;6.55;100.00
58473;BME280;44775;51.564;5.460;2024-03-02T00:36:06;99615.84;;;6.42;100.00
58473;BME280;44775;51.564;5.460;2024-03-02T00:38:33;99605.13;;;6.19;100.00
58473;BME280;44775;51.564;5.460;2024-03-02T00:41:00;99620.88;;;6.28;100.00
58473;BME280;44775;51.564;5.460;2024-03-02T00:43:41;99631.00;;;6.25;100.00
58473;BME280;44775;51.564;5.460;2024-03-02T00:46:16;99626.69;;;6.15;100.00
58473;BME280;44775;51.564;5.460;2024-03-02T00:48:48;99635.81;;;6.21;100.00
58473;BME280;44775;51.564;5.460;2024-03-02T00:51:13;99631.50;;;6.12;100.00
58473;BME280;44775;51.564;5.460;2024-03-02T00:53:39;99631.84;;;6.09;100.00
58473;BME280;44775;51.564;5.460;2024-03-02T00:56:09;99634.53;;;6.01;100.00
58473;BME280;44775;51.564;5.460;2024-03-02T00:58:34;99636.19;;;6.02;100.00
58473;BME280;44775;51.564;5.460;2024-03-02T01:00:59;99625.91;;;5.99;100.00
58473;BME280;44775;51.564;5.460;2024-03-02T01:03:25;99628.72;;;5.97;100.00
58473;BME280;44775;51.564;5.460;2024-03-02T01:05:50;99632.38;;;5.96;100.00
58473;BME280;44775;51.564;5.460;2024-03-02T01:08:15;99643.16;;;5.95;100.00
58473;BME280;44775;51.564;5.460;2024-03-02T01:10:40;99627.25;;;5.95;100.00
58473;BME280;44775;51.564;5.460;2024-03-02T01:13:06;99642.16;;;5.96;100.00
58473;BME280;44775;51.564;5.460;2024-03-02T01:15:31;99634.19;;;5.96;100.00
58473;BME280;44775;51.564;5.460;2024-03-02T01:17:57;99637.19;;;6.01;100.00
58473;BME280;44775;51.564;5.460;2024-03-02T01:20:23;99625.88;;;5.90;100.00
58473;BME280;44775;51.564;5.460;2024-03-02T01:22:48;99635.19;;;6.03;100.00
58473;BME280;44775;51.564;5.460;2024-03-02T01:25:13;99632.53;;;6.03;100.00
58473;BME280;44775;51.564;5.460;2024-03-02T01:27:39;99634.53;;;6.01;100.00
58473;BME280;44775;51.564;5.460;2024-03-02T01:30:05;99635.81;;;6.13;100.00
58473;BME280;44775;51.564;5.460;2024-03-02T01:32:30;99637.69;;;6.04;100.00
58473;BME280;44775;51.564;5.460;2024-03-02T01:34:55;99639.31;;;6.05;100.00
58473;BME280;44775;51.564;5.460;2024-03-02T01:37:21;99637.50;;;6.06;100.00
58473;BME280;44775;51.564;5.460;2024-03-02T01:39:46;99641.47;;;6.02;100.00
58473;BME280;44775;51.564;5.460;2024-03-02T01:42:11;99628.88;;;6.04;100.00
58473;BME280;44775;51.564;5.460;2024-03-02T01:44:37;99647.91;;;6.07;100.00
58473;BME280;44775;51.564;5.460;2024-03-02T01:47:02;99651.56;;;6.06;100.00
58473;BME280;44775;51.564;5.460;2024-03-02T01:49:28;99656.06;;;6.06;100.00
58473;BME280;44775;51.564;5.460;2024-03-02T01:51:53;99638.66;;;6.11;100.00
58473;BME280;44775;51.564;5.460;2024-03-02T01:54:18;99627.03;;;6.12;100.00
58473;BME280;44775;51.564;5.460;2024-03-02T01:56:44;99636.81;;;6.12;100.00
58473;BME280;44775;51.564;5.460;2024-03-02T01:59:10;99648.75;;;6.16;100.00
58473;BME280;44775;51.564;5.460;2024-03-02T02:01:35;99649.06;;;6.21;100.00
58473;BME280;44775;51.564;5.460;2024-03-02T02:04:00;99651.25;;;6.18;100.00
58473;BME280;44775;51.564;5.460;2024-03-02T02:06:26;99648.59;;;6.18;100.00
58473;BME280;44775;51.564;5.460;2024-03-02T02:08:51;99643.41;;;6.24;100.00
58473;BME280;44775;51.564;5.460;2024-03-02T02:11:16;99634.97;;;6.21;100.00
58473;BME280;44775;51.564;5.460;2024-03-02T02:13:42;99636.13;;;6.26;100.00
58473;BME280;44775;51.564;5.460;2024-03-02T02:16:08;99637.78;;;6.19;100.00
58473;BME280;44775;51.564;5.460;2024-03-02T02:18:34;99642.63;;;6.15;100.00
58473;BME280;44775;51.564;5.460;2024-03-02T02:20:59;99640.63;;;6.18;100.00
58473;BME280;44775;51.564;5.460;2024-03-02T02:23:25;99640.94;;;6.23;100.00
58473;BME280;44775;51.564;5.460;2024-03-02T02:25:50;99644.41;;;6.23;100.00
58473;BME280;44775;51.564;5.460;2024-03-02T02:28:15;99637.16;;;6.09;100.00
58473;BME280;44775;51.564;5.460;2024-03-02T02:30:41;99636.00;;;6.03;100.00
58473;BME280;44775;51.564;5.460;2024-03-02T02:33:06;99634.69;;;5.99;100.00
58473;BME280;44775;51.564;5.460;2024-03-02T02:35:31;99645.13;;;6.01;100.00
58473;BME280;44775;51.564;5.460;2024-03-02T02:37:57;99625.72;;;5.92;100.00
58473;BME280;44775;51.564;5.460;2024-03-02T02:40:26;99632.84;;;5.91;100.00
58473;BME280;44775;51.564;5.460;2024-03-02T02:42:52;99632.56;;;5.95;100.00
58473;BME280;44775;51.564;5.460;2024-03-02T02:45:18;99630.88;;;5.85;100.00
58473;BME280;44775;51.564;5.460;2024-03-02T02:47:44;99628.88;;;5.87;100.00
58473;BME280;44775;51.564;5.460;2024-03-02T02:50:10;99618.94;;;5.89;100.00
58473;BME280;44775;51.564;5.460;2024-03-02T02:52:37;99620.94;;;5.79;100.00
58473;BME280;44775;51.564;5.460;2024-03-02T02:55:04;99648.94;;;5.82;100.00
58473;BME280;44775;51.564;5.460;2024-03-02T02:57:31;99646.59;;;5.87;100.00
58473;BME280;44775;51.564;5.460;2024-03-02T03:00:01;99642.97;;;5.80;100.00
58473;BME280;44775;51.564;5.460;2024-03-02T03:02:28;99638.16;;;5.83;100.00
58473;BME280;44775;51.564;5.460;2024-03-02T03:04:53;99638.50;;;5.88;100.00
58473;BME280;44775;51.564;5.460;2024-03-02T03:07:18;99641.13;;;5.80;100.00
58473;BME280;44775;51.564;5.460;2024-03-02T03:09:43;99635.81;;;5.80;100.00
58473;BME280;44775;51.564;5.460;2024-03-02T03:12:09;99642.16;;;5.87;100.00
58473;BME280;44775;51.564;5.460;2024-03-02T03:14:34;99661.53;;;5.96;100.00
58473;BME280;44775;51.564;5.460;2024-03-02T03:16:59;99655.72;;;5.84;100.00
58473;BME280;44775;51.564;5.460;2024-03-02T03:19:25;99647.09;;;5.82;100.00
58473;BME280;44775;51.564;5.460;2024-03-02T03:21:50;99647.63;;;5.78;100.00
58473;BME280;44775;51.564;5.460;2024-03-02T03:24:15;99652.75;;;5.79;100.00
58473;BME280;44775;51.564;5.460;2024-03-02T03:26:41;99661.69;;;5.78;100.00
58473;BME280;44775;51.564;5.460;2024-03-02T03:29:06;99655.72;;;5.84;100.00
58473;BME280;44775;51.564;5.460;2024-03-02T03:31:31;99656.88;;;5.82;100.00
58473;BME280;44775;51.564;5.460;2024-03-02T03:33:56;99649.75;;;5.90;100.00
58473;BME280;44775;51.564;5.460;2024-03-02T03:36:22;99658.06;;;5.87;100.00
58473;BME280;44775;51.564;5.460;2024-03-02T03:38:48;99656.72;;;5.83;100.00
58473;BME280;44775;51.564;5.460;2024-03-02T03:41:13;99663.34;;;5.87;100.00
58473;BME280;44775;51.564;5.460;2024-03-02T03:43:38;99674.59;;;5.89;100.00
58473;BME280;44775;51.564;5.460;2024-03-02T03:46:04;99670.63;;;5.85;100.00
58473;BME280;44775;51.564;5.460;2024-03-02T03:48:29;99662.16;;;5.90;100.00
58473;BME280;44775;51.564;5.460;2024-03-02T03:50:56;99670.31;;;5.88;100.00
58473;BME280;44775;51.564;5.460;2024-03-02T03:53:21;99662.34;;;5.88;100.00
58473;BME280;44775;51.564;5.460;2024-03-02T03:55:47;99668.66;;;5.96;100.00
58473;BME280;44775;51.564;5.460;2024-03-02T03:58:14;99660.72;;;5.96;100.00
58473;BME280;44775;51.564;5.460;2024-03-02T04:00:41;99663.69;;;5.93;100.00
58473;BME280;44775;51.564;5.460;2024-03-02T04:03:07;99673.31;;;6.02;100.00
58473;BME280;44775;51.564;5.460;2024-03-02T04:05:32;99680.44;;;5.93;100.00
58473;BME280;44775;51.564;5.460;2024-03-02T04:07:57;99675.81;;;5.95;100.00
58473;BME280;44775;51.564;5.460;2024-03-02T04:10:23;99678.94;;;5.99;100.00
58473;BME280;44775;51.564;5.460;2024-03-02T04:12:49;99677.94;;;5.91;100.00
58473;BME280;44775;51.564;5.460;2024-03-02T04:15:15;99677.63;;;5.95;100.00
58473;BME280;44775;51.564;5.460;2024-03-02T04:17:41;99679.59;;;5.93;100.00
58473;BME280;44775;51.564;5.460;2024-03-02T04:20:06;99668.81;;;5.86;100.00
58473;BME280;44775;51.564;5.460;2024-03-02T04:22:35;99675.94;;;5.85;100.00
58473;BME280;44775;51.564;5.460;2024-03-02T04:25:01;99673.97;;;5.87;100.00
58473;BME280;44775;51.564;5.460;2024-03-02T04:27:26;99674.63;;;5.81;100.00
58473;BME280;44775;51.564;5.460;2024-03-02T04:29:52;99664.81;;;5.74;100.00
58473;BME280;44775;51.564;5.460;2024-03-02T04:32:17;99673.63;;;5.82;100.00
58473;BME280;44775;51.564;5.460;2024-03-02T04:34:44;99687.03;;;5.73;100.00
58473;BME280;44775;51.564;5.460;2024-03-02T04:37:11;99684.06;;;5.67;100.00
58473;BME280;44775;51.564;5.460;2024-03-02T04:39:37;99675.63;;;5.64;100.00
58473;BME280;44775;51.564;5.460;2024-03-02T04:42:03;99673.13;;;5.62;100.00
58473;BME280;44775;51.564;5.460;2024-03-02T04:44:28;99680.59;;;5.67;100.00
58473;BME280;44775;51.564;5.460;2024-03-02T04:46:53;99688.19;;;5.70;100.00
58473;BME280;44775;51.564;5.460;2024-03-02T04:49:19;99683.25;;;5.67;100.00
58473;BME280;44775;51.564;5.460;2024-03-02T04:51:44;99679.59;;;5.68;100.00
58473;BME280;44775;51.564;5.460;2024-03-02T04:54:09;99683.56;;;5.72;100.00
58473;BME280;44775;51.564;5.460;2024-03-02T04:56:34;99684.25;;;5.74;100.00
58473;BME280;44775;51.564;5.460;2024-03-02T04:59:10;99691.50;;;5.80;100.00
58473;BME280;44775;51.564;5.460;2024-03-02T05:01:35;99695.16;;;5.79;100.00
58473;BME280;44775;51.564;5.460;2024-03-02T05:04:00;99702.09;;;5.80;100.00
58473;BME280;44775;51.564;5.460;2024-03-02T05:06:26;99691.50;;;5.80;100.00
58473;BME280;44775;51.564;5.460;2024-03-02T05:08:51;99696.31;;;5.85;100.00
58473;BME280;44775;51.564;5.460;2024-03-02T05:11:16;99692.66;;;5.86;100.00
58473;BME280;44775;51.564;5.460;2024-03-02T05:14:07;99697.16;;;5.85;100.00
58473;BME280;44775;51.564;5.460;2024-03-02T05:16:34;99696.81;;;5.80;100.00
58473;BME280;44775;51.564;5.460;2024-03-02T05:19:00;99703.63;;;5.75;100.00
58473;BME280;44775;51.564;5.460;2024-03-02T05:21:25;99697.81;;;5.71;100.00
58473;BME280;44775;51.564;5.460;2024-03-02T05:23:51;99698.16;;;5.68;100.00
58473;BME280;44775;51.564;5.460;2024-03-02T05:26:16;99700.78;;;5.60;100.00
58473;BME280;44775;51.564;5.460;2024-03-02T05:28:42;99703.59;;;5.58;100.00
58473;BME280;44775;51.564;5.460;2024-03-02T05:31:10;99703.59;;;5.58;100.00
58473;BME280;44775;51.564;5.460;2024-03-02T05:33:38;99711.38;;;5.60;100.00
58473;BME280;44775;51.564;5.460;2024-03-02T05:36:04;99714.69;;;5.62;100.00
58473;BME280;44775;51.564;5.460;2024-03-02T05:38:29;99712.06;;;5.54;100.00
58473;BME280;44775;51.564;5.460;2024-03-02T05:40:55;99718.69;;;5.58;100.00
58473;BME280;44775;51.564;5.460;2024-03-02T05:43:20;99719.50;;;5.66;100.00
58473;BME280;44775;51.564;5.460;2024-03-02T05:45:45;99726.31;;;5.69;100.00
58473;BME280;44775;51.564;5.460;2024-03-02T05:48:10;99711.53;;;5.66;100.00
58473;BME280;44775;51.564;5.460;2024-03-02T05:50:36;99727.63;;;5.73;100.00
58473;BME280;44775;51.564;5.460;2024-03-02T05:53:01;99728.31;;;5.75;100.00
58473;BME280;44775;51.564;5.460;2024-03-02T05:55:26;99731.94;;;5.74;100.00
58473;BME280;44775;51.564;5.460;2024-03-02T05:57:52;99733.59;;;5.75;100.00
58473;BME280;44775;51.564;5.460;2024-03-02T06:00:32;99736.41;;;5.74;100.00
58473;BME280;44775;51.564;5.460;2024-03-02T06:02:58;99727.78;;;5.80;100.00
58473;BME280;44775;51.564;5.460;2024-03-02T06:05:24;99728.44;;;5.74;100.00
58473;BME280;44775;51.564;5.460;2024-03-02T06:07:50;99737.06;;;5.76;100.00
58473;BME280;44775;51.564;5.460;2024-03-02T06:10:15;99740.56;;;5.76;100.00
58473;BME280;44775;51.564;5.460;2024-03-02T06:12:41;99736.56;;;5.72;100.00
58473;BME280;44775;51.564;5.460;2024-03-02T06:15:06;99743.53;;;5.73;100.00
58473;BME280;44775;51.564;5.460;2024-03-02T06:17:32;99738.56;;;5.70;100.00
58473;BME280;44775;51.564;5.460;2024-03-02T06:19:57;99742.88;;;5.71;100.00
58473;BME280;44775;51.564;5.460;2024-03-02T06:22:22;99740.22;;;5.71;100.00
58473;BME280;44775;51.564;5.460;2024-03-02T06:24:50;99738.91;;;5.67;100.00
58473;BME280;44775;51.564;5.460;2024-03-02T06:27:15;99749.34;;;5.68;100.00
58473;BME280;44775;51.564;5.460;2024-03-02T06:29:40;99745.34;;;5.73;100.00
58473;BME280;44775;51.564;5.460;2024-03-02T06:32:06;99742.38;;;5.67;100.00
58473;BME280;44775;51.564;5.460;2024-03-02T06:34:31;99742.84;;;5.63;100.00
58473;BME280;44775;51.564;5.460;2024-03-02T06:36:56;99744.03;;;5.60;100.00
58473;BME280;44775;51.564;5.460;2024-03-02T06:39:22;99744.84;;;5.61;100.00
58473;BME280;44775;51.564;5.460;2024-03-02T06:41:47;99753.97;;;5.58;100.00
58473;BME280;44775;51.564;5.460;2024-03-02T06:44:13;99754.28;;;5.55;100.00
58473;BME280;44775;51.564;5.460;2024-03-02T06:46:38;99757.59;;;5.57;100.00
58473;BME280;44775;51.564;5.460;2024-03-02T06:49:04;99755.13;;;5.64;100.00
58473;BME280;44775;51.564;5.460;2024-03-02T06:51:29;99752.44;;;5.56;100.00
58473;BME280;44775;51.564;5.460;2024-03-02T06:53:55;99771.69;;;5.66;100.00
58473;BME280;44775;51.564;5.460;2024-03-02T06:56:20;99765.88;;;5.62;100.00
58473;BME280;44775;51.564;5.460;2024-03-02T06:58:46;99772.53;;;5.75;100.00
58473;BME280;44775;51.564;5.460;2024-03-02T07:01:12;99774.53;;;5.89;100.00
58473;BME280;44775;51.564;5.460;2024-03-02T07:03:37;99785.66;;;5.93;100.00
58473;BME280;44775;51.564;5.460;2024-03-02T07:06:04;99785.34;;;5.96;100.00
58473;BME280;44775;51.564;5.460;2024-03-02T07:08:30;99796.28;;;5.93;100.00
58473;BME280;44775;51.564;5.460;2024-03-02T07:10:55;99786.66;;;6.00;100.00
58473;BME280;44775;51.564;5.460;2024-03-02T07:13:21;99790.16;;;6.00;100.00
58473;BME280;44775;51.564;5.460;2024-03-02T07:15:46;99781.03;;;6.03;100.00
58473;BME280;44775;51.564;5.460;2024-03-02T07:18:30;99788.19;;;6.19;100.00
58473;BME280;44775;51.564;5.460;2024-03-02T07:20:56;99785.84;;;6.15;100.00
58473;BME280;44775;51.564;5.460;2024-03-02T07:23:26;99802.25;;;6.27;100.00
58473;BME280;44775;51.564;5.460;2024-03-02T07:25:53;99801.41;;;6.43;100.00
58473;BME280;44775;51.564;5.460;2024-03-02T07:28:22;99805.88;;;6.34;100.00
58473;BME280;44775;51.564;5.460;2024-03-02T07:31:00;99807.91;;;6.32;100.00
58473;BME280;44775;51.564;5.460;2024-03-02T07:33:26;99806.41;;;6.30;100.00
58473;BME280;44775;51.564;5.460;2024-03-02T07:35:51;99805.75;;;6.28;100.00
58473;BME280;44775;51.564;5.460;2024-03-02T07:38:17;99799.25;;;6.47;100.00
58473;BME280;44775;51.564;5.460;2024-03-02T07:40:45;99801.91;;;6.47;100.00
58473;BME280;44775;51.564;5.460;2024-03-02T07:43:11;99799.94;;;6.32;100.00
58473;BME280;44775;51.564;5.460;2024-03-02T07:45:36;99806.06;;;6.33;100.00
58473;BME280;44775;51.564;5.460;2024-03-02T07:48:02;99792.31;;;6.29;100.00
58473;BME280;44775;51.564;5.460;2024-03-02T07:50:29;99800.94;;;6.23;100.00
58473;BME280;44775;51.564;5.460;2024-03-02T07:52:55;99801.75;;;6.40;100.00
58473;BME280;44775;51.564;5.460;2024-03-02T07:55:22;99802.59;;;6.32;100.00
58473;BME280;44775;51.564;5.460;2024-03-02T07:57:50;99810.53;;;6.24;100.00
58473;BME280;44775;51.564;5.460;2024-03-02T08:00:15;99806.75;;;6.35;100.00
58473;BME280;44775;51.564;5.460;2024-03-02T08:02:41;99803.22;;;6.34;100.00
58473;BME280;44775;51.564;5.460;2024-03-02T08:05:07;99811.69;;;6.46;100.00
58473;BME280;44775;51.564;5.460;2024-03-02T08:07:33;99810.84;;;6.54;100.00
58473;BME280;44775;51.564;5.460;2024-03-02T08:09:58;99812.53;;;6.55;100.00
58473;BME280;44775;51.564;5.460;2024-03-02T08:12:24;99812.38;;;6.48;100.00
58473;BME280;44775;51.564;5.460;2024-03-02T08:14:49;99814.34;;;6.62;100.00
58473;BME280;44775;51.564;5.460;2024-03-02T08:17:14;99817.75;;;6.88;100.00
58473;BME280;44775;51.564;5.460;2024-03-02T08:19:40;99823.47;;;7.24;100.00
58473;BME280;44775;51.564;5.460;2024-03-02T08:22:06;99826.63;;;7.58;100.00
58473;BME280;44775;51.564;5.460;2024-03-02T08:24:32;99819.69;;;7.80;100.00
58473;BME280;44775;51.564;5.460;2024-03-02T08:26:59;99818.72;;;8.04;100.00
58473;BME280;44775;51.564;5.460;2024-03-02T08:29:24;99823.09;;;8.20;100.00
58473;BME280;44775;51.564;5.460;2024-03-02T08:31:50;99833.78;;;8.35;100.00
58473;BME280;44775;51.564;5.460;2024-03-02T08:34:15;99830.81;;;8.53;100.00
58473;BME280;44775;51.564;5.460;2024-03-02T08:36:40;99831.78;;;8.90;100.00
58473;BME280;44775;51.564;5.460;2024-03-02T08:39:07;99821.97;;;9.05;100.00
58473;BME280;44775;51.564;5.460;2024-03-02T08:41:41;99831.16;;;9.32;100.00
58473;BME280;44775;51.564;5.460;2024-03-02T08:44:06;99832.72;;;9.27;100.00
58473;BME280;44775;51.564;5.460;2024-03-02T08:46:31;99831.91;;;9.26;100.00
58473;BME280;44775;51.564;5.460;2024-03-02T08:48:56;99829.03;;;9.28;100.00
58473;BME280;44775;51.564;5.460;2024-03-02T08:51:22;99835.31;;;9.35;100.00
58473;BME280;44775;51.564;5.460;2024-03-02T08:53:47;99837.19;;;9.56;100.00
58473;BME280;44775;51.564;5.460;2024-03-02T08:56:12;99836.78;;;9.74;100.00
58473;BME280;44775;51.564;5.460;2024-03-02T08:58:38;99839.16;;;10.05;100.00
58473;BME280;44775;51.564;5.460;2024-03-02T09:01:03;99839.66;;;10.30;100.00
58473;BME280;44775;51.564;5.460;2024-03-02T09:03:29;99843.72;;;10.26;100.00
58473;BME280;44775;51.564;5.460;2024-03-02T09:05:54;99840.91;;;10.12;100.00
58473;BME280;44775;51.564;5.460;2024-03-02T09:08:20;99835.16;;;9.94;100.00
58473;BME280;44775;51.564;5.460;2024-03-02T09:10:45;99838.28;;;10.19;100.00
58473;BME280;44775;51.564;5.460;2024-03-02T09:13:10;99838.84;;;10.29;100.00
58473;BME280;44775;51.564;5.460;2024-03-02T09:15:36;99845.44;;;10.33;100.00
58473;BME280;44775;51.564;5.460;2024-03-02T09:18:03;99841.31;;;10.31;100.00
58473;BME280;44775;51.564;5.460;2024-03-02T09:20:28;99838.06;;;10.35;100.00
58473;BME280;44775;51.564;5.460;2024-03-02T09:22:53;99832.16;;;10.40;100.00
58473;BME280;44775;51.564;5.460;2024-03-02T09:25:19;99831.28;;;10.61;100.00
58473;BME280;44775;51.564;5.460;2024-03-02T09:27:44;99835.00;;;10.88;100.00
58473;BME280;44775;51.564;5.460;2024-03-02T09:30:09;99846.25;;;11.11;100.00
58473;BME280;44775;51.564;5.460;2024-03-02T09:32:36;99830.13;;;10.70;99.93
58473;BME280;44775;51.564;5.460;2024-03-02T09:35:02;99841.34;;;10.59;100.00
58473;BME280;44775;51.564;5.460;2024-03-02T09:37:27;99839.41;;;10.46;100.00
58473;BME280;44775;51.564;5.460;2024-03-02T09:39:54;99835.28;;;10.72;100.00
58473;BME280;44775;51.564;5.460;2024-03-02T09:42:19;99851.25;;;10.93;100.00
58473;BME280;44775;51.564;5.460;2024-03-02T09:44:45;99843.81;;;11.23;100.00
58473;BME280;44775;51.564;5.460;2024-03-02T09:47:10;99846.06;;;11.20;100.00
58473;BME280;44775;51.564;5.460;2024-03-02T09:49:35;99863.31;;;11.10;100.00
58473;BME280;44775;51.564;5.460;2024-03-02T09:52:02;99844.81;;;11.16;100.00
58473;BME280;44775;51.564;5.460;2024-03-02T09:54:28;99849.31;;;11.08;98.92
58473;BME280;44775;51.564;5.460;2024-03-02T09:56:54;99835.84;;;10.95;100.00
58473;BME280;44775;51.564;5.460;2024-03-02T09:59:19;99848.22;;;11.03;94.80
58473;BME280;44775;51.564;5.460;2024-03-02T10:02:01;99841.41;;;10.94;98.79
58473;BME280;44775;51.564;5.460;2024-03-02T10:04:28;99839.81;;;11.06;99.75
58473;BME280;44775;51.564;5.460;2024-03-02T10:09:33;99829.19;;;11.61;94.28
58473;BME280;44775;51.564;5.460;2024-03-02T10:12:06;99833.22;;;11.85;95.81
58473;BME280;44775;51.564;5.460;2024-03-02T10:14:32;99835.22;;;11.76;89.40
58473;BME280;44775;51.564;5.460;2024-03-02T10:17:05;99834.88;;;11.86;91.47
58473;BME280;44775;51.564;5.460;2024-03-02T10:19:31;99819.03;;;11.97;88.37
58473;BME280;44775;51.564;5.460;2024-03-02T10:22:01;99825.09;;;12.39;84.47
58473;BME280;44775;51.564;5.460;2024-03-02T10:24:27;99821.34;;;12.73;82.11
58473;BME280;44775;51.564;5.460;2024-03-02T10:26:53;99823.78;;;12.95;81.37
58473;BME280;44775;51.564;5.460;2024-03-02T10:29:19;99813.88;;;13.02;82.16
58473;BME280;44775;51.564;5.460;2024-03-02T10:31:46;99828.31;;;13.01;76.80
58473;BME280;44775;51.564;5.460;2024-03-02T10:34:12;99820.13;;;12.83;72.18
58473;BME280;44775;51.564;5.460;2024-03-02T10:36:41;99814.16;;;12.61;72.96
58473;BME280;44775;51.564;5.460;2024-03-02T10:39:07;99820.72;;;12.91;75.64
58473;BME280;44775;51.564;5.460;2024-03-02T10:41:37;99826.91;;;12.59;72.53
58473;BME280;44775;51.564;5.460;2024-03-02T10:44:03;99824.63;;;12.69;71.46
58473;BME280;44775;51.564;5.460;2024-03-02T10:46:30;99820.13;;;12.83;70.43
58473;BME280;44775;51.564;5.460;2024-03-02T10:48:56;99821.53;;;12.85;67.11
58473;BME280;44775;51.564;5.460;2024-03-02T10:51:26;99803.19;;;12.75;69.93
58473;BME280;44775;51.564;5.460;2024-03-02T10:53:54;99806.09;;;12.81;69.33
58473;BME280;44775;51.564;5.460;2024-03-02T10:56:42;99806.59;;;13.29;70.77
58473;BME280;44775;51.564;5.460;2024-03-02T10:59:24;99796.28;;;13.26;72.67
58473;BME280;44775;51.564;5.460;2024-03-02T11:01:57;99813.00;;;13.35;67.50
58473;BME280;44775;51.564;5.460;2024-03-02T11:04:26;99813.00;;;13.21;72.01
58473;BME280;44775;51.564;5.460;2024-03-02T11:06:56;99810.22;;;13.61;67.46
58473;BME280;44775;51.564;5.460;2024-03-02T11:09:26;99809.28;;;13.81;67.05
58473;BME280;44775;51.564;5.460;2024-03-02T11:12:06;99804.31;;;14.16;68.23
58473;BME280;44775;51.564;5.460;2024-03-02T11:14:37;99804.50;;;14.21;63.39
58473;BME280;44775;51.564;5.460;2024-03-02T11:17:06;99801.91;;;14.08;64.15
58473;BME280;44775;51.564;5.460;2024-03-02T11:19:32;99792.63;;;13.97;64.04
58473;BME280;44775;51.564;5.460;2024-03-02T11:21:59;99798.59;;;13.74;70.73
58473;BME280;44775;51.564;5.460;2024-03-02T11:26:57;99799.84;;;14.35;66.27
58473;BME280;44775;51.564;5.460;2024-03-02T11:32:00;99808.81;;;14.22;63.33
58473;BME280;44775;51.564;5.460;2024-03-02T11:37:00;99799.31;;;13.43;63.87
58473;BME280;44775;51.564;5.460;2024-03-02T11:39:27;99806.13;;;13.90;66.18
58473;BME280;44775;51.564;5.460;2024-03-02T11:41:52;99806.50;;;14.01;62.20
58473;BME280;44775;51.564;5.460;2024-03-02T11:44:17;99802.13;;;14.00;68.59
58473;BME280;44775;51.564;5.460;2024-03-02T11:46:45;99800.09;;;13.95;70.38
58473;BME280;44775;51.564;5.460;2024-03-02T11:49:14;99804.97;;;14.11;68.57
58473;BME280;44775;51.564;5.460;2024-03-02T11:51:53;99793.22;;;14.62;66.17
58473;BME280;44775;51.564;5.460;2024-03-02T11:54:25;99791.72;;;14.67;61.20
58473;BME280;44775;51.564;5.460;2024-03-02T11:56:52;99797.47;;;14.70;66.06
58473;BME280;44775;51.564;5.460;2024-03-02T11:59:20;99790.16;;;14.77;59.40
58473;BME280;44775;51.564;5.460;2024-03-02T12:01:49;99776.28;;;14.62;66.07
58473;BME280;44775;51.564;5.460;2024-03-02T12:04:14;99792.69;;;15.16;61.02
58473;BME280;44775;51.564;5.460;2024-03-02T12:06:39;99782.22;;;14.64;60.02
58473;BME280;44775;51.564;5.460;2024-03-02T12:09:09;99769.84;;;14.38;62.57
58473;BME280;44775;51.564;5.460;2024-03-02T12:11:37;99751.22;;;14.11;69.59
58473;BME280;44775;51.564;5.460;2024-03-02T12:14:02;99764.63;;;14.18;63.06
58473;BME280;44775;51.564;5.460;2024-03-02T12:16:29;99753.31;;;14.34;64.47
58473;BME280;44775;51.564;5.460;2024-03-02T12:18:55;99765.09;;;14.33;60.66
58473;BME280;44775;51.564;5.460;2024-03-02T12:21:20;99754.19;;;14.28;68.75
58473;BME280;44775;51.564;5.460;2024-03-02T12:23:46;99743.91;;;14.44;66.97
58473;BME280;44775;51.564;5.460;2024-03-02T12:26:11;99732.53;;;14.48;69.11
58473;BME280;44775;51.564;5.460;2024-03-02T12:28:36;99732.53;;;14.23;73.35
58473;BME280;44775;51.564;5.460;2024-03-02T12:31:02;99724.88;;;14.52;64.56
58473;BME280;44775;51.564;5.460;2024-03-02T12:33:30;99718.28;;;14.23;66.17
58473;BME280;44775;51.564;5.460;2024-03-02T12:35:57;99718.53;;;14.39;71.08
58473;BME280;44775;51.564;5.460;2024-03-02T12:38:22;99707.16;;;14.37;72.58
58473;BME280;44775;51.564;5.460;2024-03-02T12:40:51;99712.13;;;14.66;68.69
58473;BME280;44775;51.564;5.460;2024-03-02T12:43:16;99714.34;;;14.87;65.65
58473;BME280;44775;51.564;5.460;2024-03-02T12:45:42;99727.91;;;14.99;61.88
58473;BME280;44775;51.564;5.460;2024-03-02T12:48:07;99728.38;;;15.26;64.77
58473;BME280;44775;51.564;5.460;2024-03-02T12:50:33;99722.41;;;15.24;64.58
58473;BME280;44775;51.564;5.460;2024-03-02T12:52:58;99714.28;;;15.12;67.89
58473;BME280;44775;51.564;5.460;2024-03-02T12:55:24;99709.34;;;15.09;66.69
58473;BME280;44775;51.564;5.460;2024-03-02T12:57:50;99708.56;;;15.20;65.66
58473;BME280;44775;51.564;5.460;2024-03-02T13:00:18;99714.00;;;15.32;67.83
58473;BME280;44775;51.564;5.460;2024-03-02T13:02:45;99704.91;;;15.33;64.47
58473;BME280;44775;51.564;5.460;2024-03-02T13:05:11;99708.16;;;15.35;65.01
58473;BME280;44775;51.564;5.460;2024-03-02T13:07:37;99711.03;;;15.52;62.54
58473;BME280;44775;51.564;5.460;2024-03-02T13:10:03;99697.72;;;15.57;66.72